Time;durP1;ratioP1;P1;durP2;ratioP2;P2;SDS_P1;SDS_P2;PMS_P1;PMS_P2;Temp;Humidity;BMP_temperature;BMP_pressure;BME280_temperature;BME280_humidity;BME280_pressure;Samples;Min_cycle;Max_cycle;Signal;HPM_P1;HPM_P2
2021/10/05 00:01:44;;;;;;;80.30;35.73;;;;;;;8.17;83.25;95230.89;1704953;83;21140;-56
2021/10/05 00:04:10;;;;;;;71.72;33.80;;;;;;;8.11;83.36;95229.23;1710203;83;20991;-56
2021/10/05 00:06:37;;;;;;;72.45;34.18;;;;;;;8.10;83.71;95227.68;1703530;83;21062;-57
2021/10/05 00:09:04;;;;;;;78.30;37.65;;;;;;;8.12;83.69;95223.16;1705638;83;21027;-56
2021/10/05 00:11:31;;;;;;;78.00;36.17;;;;;;;8.12;83.93;95215.73;1706683;83;21021;-57
2021/10/05 00:13:59;;;;;;;83.58;34.53;;;;;;;8.17;83.97;95205.64;1707150;83;21147;-56
2021/10/05 00:16:26;;;;;;;65.72;32.40;;;;;;;8.21;83.73;95215.97;1702299;83;20999;-57
2021/10/05 00:18:53;;;;;;;74.67;32.03;;;;;;;8.23;83.45;95213.58;1709382;83;21073;-57
2021/10/05 00:21:19;;;;;;;66.05;31.95;;;;;;;8.25;83.44;95219.41;1704287;83;21561;-58
2021/10/05 00:23:46;;;;;;;62.65;30.32;;;;;;;8.26;83.15;95215.47;1711750;83;21431;-56
2021/10/05 00:26:13;;;;;;;56.30;29.00;;;;;;;8.23;82.73;95213.58;1707067;83;21139;-56
2021/10/05 00:28:41;;;;;;;71.35;34.05;;;;;;;8.19;82.43;95216.98;1702226;83;21022;-56
2021/10/05 00:31:08;;;;;;;61.77;32.28;;;;;;;8.17;82.37;95211.12;1709553;83;21537;-56
2021/10/05 00:33:36;;;;;;;63.65;32.78;;;;;;;8.18;82.40;95211.33;1697138;83;21003;-56
2021/10/05 00:36:04;;;;;;;64.80;28.73;;;;;;;8.24;82.67;95221.97;1708589;83;21478;-56
2021/10/05 00:38:31;;;;;;;68.05;34.25;;;;;;;8.25;82.34;95219.41;1702478;83;21736;-57
2021/10/05 00:40:58;;;;;;;73.65;34.78;;;;;;;8.24;82.29;95217.86;1708084;83;21085;-55
2021/10/05 00:43:24;;;;;;;59.75;32.20;;;;;;;8.28;82.42;95215.82;1702373;83;21042;-56
2021/10/05 00:45:51;;;;;;;66.75;33.18;;;;;;;8.30;82.51;95215.41;1706869;83;20955;-56
2021/10/05 00:48:18;;;;;;;64.35;32.38;;;;;;;8.29;82.64;95217.36;1712351;82;20971;-56
2021/10/05 00:50:45;;;;;;;73.07;31.60;;;;;;;8.31;82.54;95215.59;1707814;83;21164;-56
2021/10/05 00:53:12;;;;;;;54.77;29.40;;;;;;;8.28;82.29;95206.84;1706816;83;21095;-56
2021/10/05 00:55:39;;;;;;;67.62;31.95;;;;;;;8.16;82.40;95202.73;1703662;84;21500;-56
2021/10/05 00:58:06;;;;;;;77.85;35.10;;;;;;;8.07;82.73;95204.48;1707065;83;21451;-56
2021/10/05 01:00:32;;;;;;;70.57;31.37;;;;;;;8.03;82.90;95201.79;1707864;83;21522;-55
2021/10/05 01:02:59;;;;;;;68.60;34.05;;;;;;;8.01;83.04;95206.92;1701250;83;21077;-55
2021/10/05 01:05:27;;;;;;;60.55;32.33;;;;;;;8.04;83.37;95208.81;1707701;83;20939;-55
2021/10/05 01:07:55;;;;;;;67.75;34.15;;;;;;;8.08;83.30;95206.78;1705306;83;21011;-56
2021/10/05 01:10:21;;;;;;;65.55;34.70;;;;;;;8.01;83.36;95204.77;1708491;83;21109;-56
2021/10/05 01:12:50;;;;;;;67.72;35.05;;;;;;;7.95;83.67;95205.87;1708611;83;21073;-56
2021/10/05 01:15:22;;;;;;;75.15;34.15;;;;;;;7.98;83.86;95203.66;1694684;83;21165;-56
2021/10/05 01:17:49;;;;;;;69.50;33.60;;;;;;;8.02;83.81;95204.36;1708590;83;21062;-56
2021/10/05 01:20:15;;;;;;;69.80;31.55;;;;;;;8.08;83.92;95206.02;1705102;83;20999;-56
2021/10/05 01:22:42;;;;;;;61.05;32.80;;;;;;;8.14;83.91;95205.13;1707387;83;21031;-55
2021/10/05 01:25:12;;;;;;;66.00;34.43;;;;;;;8.22;83.80;95207.92;1710335;83;21011;-56
2021/10/05 01:27:53;;;;;;;69.12;34.27;;;;;;;8.28;83.69;95211.70;1701298;83;21170;-56
2021/10/05 01:30:21;;;;;;;65.67;32.00;;;;;;;8.36;83.67;95213.72;1708303;83;21415;-57
2021/10/05 01:32:48;;;;;;;56.20;31.27;;;;;;;8.45;83.23;95214.70;1701123;83;21007;-59
2021/10/05 01:35:15;;;;;;;60.70;31.70;;;;;;;8.55;83.03;95215.11;1706463;83;21079;-57
2021/10/05 01:37:41;;;;;;;72.85;33.35;;;;;;;8.64;82.77;95215.30;1706218;83;20970;-56
2021/10/05 01:40:10;;;;;;;69.22;32.13;;;;;;;8.71;82.27;95210.27;1710025;83;21102;-56
2021/10/05 01:42:37;;;;;;;60.95;33.23;;;;;;;8.73;81.80;95209.24;1711669;83;21027;-56
2021/10/05 01:45:05;;;;;;;65.97;30.32;;;;;;;8.71;81.41;95219.28;1709968;83;21517;-57
2021/10/05 01:47:34;;;;;;;61.23;29.27;;;;;;;8.69;81.11;95213.45;1709741;83;21054;-57
2021/10/05 01:50:01;;;;;;;47.90;26.62;;;;;;;8.66;80.84;95211.53;1703720;83;21411;-57
2021/10/05 01:52:29;;;;;;;58.80;30.23;;;;;;;8.62;81.17;95206.72;1679763;83;22329;-57
2021/10/05 01:54:56;;;;;;;55.60;29.80;;;;;;;8.53;81.14;95210.64;1696859;83;21023;-57
2021/10/05 01:57:24;;;;;;;58.23;30.23;;;;;;;8.47;81.30;95212.31;1711873;83;21090;-57
2021/10/05 01:59:50;;;;;;;57.73;28.10;;;;;;;8.44;81.30;95210.42;1705545;83;21070;-57
2021/10/05 02:02:17;;;;;;;55.43;27.45;;;;;;;8.40;81.28;95219.31;1707779;83;21106;-57
2021/10/05 02:04:45;;;;;;;49.15;26.50;;;;;;;8.37;81.33;95211.94;1708354;83;21827;-55
2021/10/05 02:07:12;;;;;;;48.40;27.73;;;;;;;8.34;81.49;95218.27;1710702;83;20971;-55
2021/10/05 02:09:39;;;;;;;53.90;28.83;;;;;;;8.25;81.67;95219.41;1706331;83;20959;-56
2021/10/05 02:12:08;;;;;;;59.98;28.47;;;;;;;8.23;81.98;95212.82;1706841;83;20978;-55
2021/10/05 02:14:34;;;;;;;55.45;27.90;;;;;;;8.22;82.05;95215.38;1706121;83;21038;-56
2021/10/05 02:17:02;;;;;;;65.05;26.60;;;;;;;8.19;81.91;95218.36;1703242;83;21144;-56
2021/10/05 02:19:29;;;;;;;69.37;28.50;;;;;;;8.12;82.03;95212.98;1709196;83;20987;-56
2021/10/05 02:21:56;;;;;;;75.47;30.30;;;;;;;8.12;82.37;95215.73;1710859;83;20975;-56
2021/10/05 02:26:51;;;;;;;64.77;29.87;;;;;;;8.16;82.63;95211.53;1702187;83;21427;-56
2021/10/05 02:29:19;;;;;;;66.87;31.17;;;;;;;8.17;82.91;95214.45;1705887;83;21148;-56
2021/10/05 02:31:46;;;;;;;68.65;28.57;;;;;;;8.22;83.06;95212.03;1705133;83;21137;-54
2021/10/05 02:34:13;;;;;;;59.58;26.12;;;;;;;8.26;82.96;95222.33;1703110;83;21062;-55
2021/10/05 02:36:41;;;;;;;57.78;25.75;;;;;;;8.28;82.96;95219.17;1703293;83;20966;-56
2021/10/05 02:39:07;;;;;;;74.80;31.12;;;;;;;8.25;82.85;95216.67;1705461;83;21184;-56
2021/10/05 02:41:36;;;;;;;58.92;27.17;;;;;;;8.21;82.98;95220.69;1703550;83;20938;-56
2021/10/05 02:44:03;;;;;;;48.87;25.88;;;;;;;8.18;82.94;95214.07;1708622;83;21484;-55
2021/10/05 02:46:31;;;;;;;68.10;25.23;;;;;;;8.13;82.99;95216.48;1709244;83;20982;-56
2021/10/05 02:48:57;;;;;;;47.13;25.32;;;;;;;8.08;83.05;95212.25;1702393;83;20971;-55
2021/10/05 02:51:24;;;;;;;60.40;27.02;;;;;;;8.06;83.28;95210.53;1711795;83;21596;-56
2021/10/05 02:53:52;;;;;;;58.13;28.50;;;;;;;8.09;83.46;95211.06;1707254;83;21037;-56
2021/10/05 02:56:19;;;;;;;63.85;28.35;;;;;;;8.14;83.28;95211.97;1709008;83;21080;-56
2021/10/05 02:58:46;;;;;;;58.75;28.85;;;;;;;8.18;83.29;95212.70;1706173;83;21168;-56
2021/10/05 03:01:13;;;;;;;52.67;25.85;;;;;;;8.27;83.35;95211.53;1705041;83;21132;-55
2021/10/05 03:03:39;;;;;;;60.15;25.35;;;;;;;8.39;83.18;95215.03;1708707;83;21066;-56
2021/10/05 03:06:06;;;;;;;50.73;23.75;;;;;;;8.56;82.86;95209.80;1702385;83;21205;-56
2021/10/05 03:08:34;;;;;;;54.80;24.95;;;;;;;8.68;82.47;95214.66;1705686;83;21106;-55
2021/10/05 03:11:02;;;;;;;50.60;25.80;;;;;;;8.71;81.91;95213.80;1705939;83;21077;-56
2021/10/05 03:13:33;;;;;;;39.70;24.05;;;;;;;8.65;81.70;95220.95;1709960;83;21205;-56
2021/10/05 03:15:57;;;;;;;76.12;24.18;;;;;;;8.57;81.73;95220.94;1700428;83;20955;-55
2021/10/05 03:18:24;;;;;;;46.65;25.12;;;;;;;8.53;81.54;95221.61;1703269;83;21810;-55
2021/10/05 03:20:51;;;;;;;47.27;22.98;;;;;;;8.49;81.51;95222.28;1705425;83;20999;-55
2021/10/05 03:23:17;;;;;;;48.35;25.92;;;;;;;8.50;81.54;95214.23;1704690;83;20958;-55
2021/10/05 03:25:44;;;;;;;50.10;26.68;;;;;;;8.51;81.51;95215.78;1708406;83;20982;-56
2021/10/05 03:28:11;;;;;;;55.43;27.02;;;;;;;8.55;81.49;95219.22;1707649;82;20932;-55
2021/10/05 03:30:37;;;;;;;50.78;25.88;;;;;;;8.57;80.86;95222.30;1707503;83;21116;-56
2021/10/05 03:33:04;;;;;;;57.23;25.90;;;;;;;8.56;80.78;95220.77;1706942;83;21006;-56
2021/10/05 03:35:31;;;;;;;47.48;26.60;;;;;;;8.54;80.52;95221.00;1711011;83;21066;-55
2021/10/05 03:37:58;;;;;;;44.98;25.57;;;;;;;8.49;80.35;95220.91;1701370;83;21053;-55
2021/10/05 03:40:24;;;;;;;49.58;26.42;;;;;;;8.50;80.39;95225.20;1703068;83;21054;-56
2021/10/05 03:42:51;;;;;;;46.68;24.72;;;;;;;8.48;80.24;95224.86;1704266;83;21268;-56
2021/10/05 03:45:17;;;;;;;50.15;25.48;;;;;;;8.47;80.25;95209.57;1704421;83;21014;-55
2021/10/05 03:47:44;;;;;;;62.78;25.32;;;;;;;8.48;80.29;95222.11;1709367;83;21003;-56
2021/10/05 03:50:11;;;;;;;46.13;25.68;;;;;;;8.46;79.98;95227.22;1711247;83;20995;-55
2021/10/05 03:52:38;;;;;;;42.38;24.07;;;;;;;8.44;79.77;95225.50;1708884;83;21010;-55
2021/10/05 03:55:07;;;;;;;53.42;25.25;;;;;;;8.45;79.66;95222.93;1709725;83;21117;-55
2021/10/05 03:57:35;;;;;;;52.85;26.25;;;;;;;8.50;79.44;95230.69;1706439;83;21061;-54
2021/10/05 04:00:04;;;;;;;47.43;25.80;;;;;;;8.54;79.41;95234.70;1711013;83;21228;-55
2021/10/05 04:02:32;;;;;;;49.50;26.15;;;;;;;8.54;78.85;95232.76;1710005;83;21006;-56
2021/10/05 04:04:58;;;;;;;50.12;24.32;;;;;;;8.47;78.70;95237.60;1702698;83;20998;-56
2021/10/05 04:07:27;;;;;;;52.70;24.12;;;;;;;8.36;78.67;95239.18;1701784;83;20991;-56
2021/10/05 04:09:54;;;;;;;45.80;23.52;;;;;;;8.28;78.69;95236.38;1703770;83;21046;-56
2021/10/05 04:12:20;;;;;;;51.15;22.80;;;;;;;8.24;78.72;95236.29;1707265;83;20962;-55
2021/10/05 04:14:47;;;;;;;48.83;24.40;;;;;;;8.22;78.89;95238.06;1707911;83;20999;-56
2021/10/05 04:17:13;;;;;;;37.17;23.52;;;;;;;8.15;79.09;95242.88;1709920;83;21243;-56
2021/10/05 04:19:40;;;;;;;43.70;24.37;;;;;;;8.03;79.17;95250.35;1708837;83;22344;-55
2021/10/05 04:22:07;;;;;;;44.45;22.85;;;;;;;7.96;79.81;95255.36;1708212;83;21788;-56
2021/10/05 04:24:33;;;;;;;40.33;21.70;;;;;;;7.90;79.49;95258.38;1707812;83;21508;-55
2021/10/05 04:27:00;;;;;;;49.70;21.77;;;;;;;7.79;79.26;95263.27;1706902;83;21015;-56
2021/10/05 04:29:26;;;;;;;64.92;24.20;;;;;;;7.72;79.47;95267.48;1697888;83;20962;-55
2021/10/05 04:31:53;;;;;;;51.75;23.73;;;;;;;7.65;79.77;95260.76;1709030;83;21111;-56
2021/10/05 04:34:20;;;;;;;50.25;24.00;;;;;;;7.62;80.00;95263.55;1709202;83;21049;-57
2021/10/05 04:36:47;;;;;;;61.68;25.27;;;;;;;7.59;80.38;95261.06;1704156;83;20967;-55
2021/10/05 04:39:13;;;;;;;62.95;30.55;;;;;;;7.59;80.75;95262.42;1707335;83;21070;-57
2021/10/05 04:41:40;;;;;;;63.40;27.82;;;;;;;7.56;80.81;95265.97;1707748;83;21094;-56
2021/10/05 04:44:06;;;;;;;67.25;26.62;;;;;;;7.55;80.83;95271.27;1705191;83;21114;-56
2021/10/05 04:46:33;;;;;;;57.67;23.07;;;;;;;7.53;80.97;95266.80;1709452;83;21275;-55
2021/10/05 04:49:00;;;;;;;44.40;22.55;;;;;;;7.56;80.97;95264.59;1706578;83;21059;-56
2021/10/05 04:51:26;;;;;;;49.25;24.15;;;;;;;7.61;80.92;95271.58;1707144;83;21015;-57
2021/10/05 04:53:53;;;;;;;43.87;22.27;;;;;;;7.65;80.73;95268.97;1707681;83;21014;-56
2021/10/05 04:56:19;;;;;;;55.98;24.02;;;;;;;7.68;80.58;95270.88;1707540;83;21077;-57
2021/10/05 04:58:46;;;;;;;77.00;28.50;;;;;;;7.72;80.49;95279.04;1708133;83;21502;-55
2021/10/05 05:01:13;;;;;;;69.25;29.80;;;;;;;7.77;80.36;95278.56;1710802;82;21691;-58
2021/10/05 05:03:41;;;;;;;58.48;27.37;;;;;;;7.78;80.35;95281.48;1703876;83;21059;-56
2021/10/05 05:06:09;;;;;;;63.13;28.92;;;;;;;7.77;80.56;95273.88;1707327;83;21002;-57
2021/10/05 05:08:36;;;;;;;81.10;32.30;;;;;;;7.79;80.51;95281.07;1710298;83;21236;-56
2021/10/05 05:11:03;;;;;;;75.20;31.50;;;;;;;7.79;80.56;95279.70;1710460;83;21002;-57
2021/10/05 05:13:30;;;;;;;71.00;32.60;;;;;;;7.79;80.79;95282.44;1710275;83;20966;-57
2021/10/05 05:15:58;;;;;;;82.57;30.27;;;;;;;7.77;81.04;95283.45;1709644;83;20974;-58
2021/10/05 05:18:25;;;;;;;77.22;32.03;;;;;;;7.79;80.95;95289.29;1708935;83;21006;-57
2021/10/05 05:20:52;;;;;;;64.05;32.42;;;;;;;7.72;81.05;95290.75;1683134;83;21136;-57
2021/10/05 05:23:19;;;;;;;62.78;31.07;;;;;;;7.72;81.60;95292.13;1668589;84;21608;-57
2021/10/05 05:25:45;;;;;;;58.83;33.23;;;;;;;7.78;81.71;95300.07;1664312;84;21020;-57
2021/10/05 05:28:14;;;;;;;42.15;27.15;;;;;;;7.81;82.07;95292.38;1665516;84;21533;-56
2021/10/05 05:30:41;;;;;;;40.03;21.50;;;;;;;7.91;82.05;95296.90;1698311;83;21240;-58
2021/10/05 05:33:08;;;;;;;46.15;22.10;;;;;;;7.96;81.76;95306.03;1682068;82;21148;-56
2021/10/05 05:35:35;;;;;;;55.48;28.12;;;;;;;7.94;81.96;95298.83;1680362;83;20971;-56
2021/10/05 05:38:02;;;;;;;63.20;36.68;;;;;;;7.97;82.00;95302.10;1697379;82;21081;-57
2021/10/05 05:40:31;;;;;;;69.87;38.55;;;;;;;8.01;82.25;95299.28;1697123;82;21117;-58
2021/10/05 05:42:57;;;;;;;68.72;39.35;;;;;;;8.07;82.53;95294.89;1697609;83;21078;-57
2021/10/05 05:45:24;;;;;;;67.40;34.30;;;;;;;8.18;82.53;95292.17;1695118;83;21252;-58
2021/10/05 05:47:51;;;;;;;79.77;36.13;;;;;;;8.28;82.39;95295.31;1693919;82;21040;-60
2021/10/05 05:50:18;;;;;;;72.97;36.20;;;;;;;8.33;82.48;95289.37;1697337;82;21108;-58
2021/10/05 05:52:45;;;;;;;72.75;34.48;;;;;;;8.41;82.71;95294.88;1693226;83;21225;-57
2021/10/05 05:55:15;;;;;;;72.65;33.23;;;;;;;8.43;82.85;95287.62;1711100;83;21077;-57
2021/10/05 05:57:40;;;;;;;60.28;29.30;;;;;;;8.47;82.84;95291.06;1671652;83;21296;-59
2021/10/05 06:00:09;;;;;;;73.83;32.35;;;;;;;8.49;83.11;95290.84;1682567;83;21073;-60
2021/10/05 06:02:38;;;;;;;72.62;32.58;;;;;;;8.56;83.41;95287.16;1697532;83;21044;-57
2021/10/05 06:05:06;;;;;;;79.03;37.42;;;;;;;8.68;83.92;95299.67;1692352;83;21044;-59
2021/10/05 06:07:34;;;;;;;68.83;37.13;;;;;;;8.83;84.02;95294.06;1686448;83;21040;-58
2021/10/05 06:10:00;;;;;;;47.70;30.02;;;;;;;8.93;83.67;95296.63;1680714;81;22209;-58
2021/10/05 06:12:37;;;;;;;45.03;25.20;;;;;;;9.00;83.36;95291.56;1684450;83;21063;-58
2021/10/05 06:14:56;;;;;;;45.67;25.30;;;;;;;9.04;83.60;95289.55;1684614;83;21241;-60
2021/10/05 06:17:22;;;;;;;36.93;23.07;;;;;;;9.17;83.80;95293.16;1691423;83;21406;-56
2021/10/05 06:19:49;;;;;;;34.33;21.80;;;;;;;9.32;83.59;95291.67;1694436;83;21021;-59
2021/10/05 06:22:16;;;;;;;46.02;24.87;;;;;;;9.43;83.27;95294.34;1701548;83;21142;-67
2021/10/05 06:24:42;;;;;;;40.73;21.77;;;;;;;9.54;82.76;95299.60;1674558;82;21101;-61
2021/10/05 06:27:09;;;;;;;73.20;28.10;;;;;;;9.64;82.61;95294.48;1683843;83;21074;-59
2021/10/05 06:29:36;;;;;;;37.17;20.97;;;;;;;9.72;82.18;95294.48;1675005;83;21112;-65
2021/10/05 06:32:03;;;;;;;31.50;17.42;;;;;;;9.82;81.88;95292.09;1690912;82;21858;-59
2021/10/05 06:34:31;;;;;;;40.80;21.57;;;;;;;9.85;81.71;95293.98;1675142;83;21146;-61
2021/10/05 06:36:57;;;;;;;33.45;19.02;;;;;;;9.85;81.82;95285.73;1689024;83;21059;-59
2021/10/05 06:39:24;;;;;;;31.50;16.30;;;;;;;9.88;81.84;95290.37;1689592;82;21205;-58
2021/10/05 06:41:50;;;;;;;33.83;18.75;;;;;;;9.92;81.91;95288.30;1697108;83;21074;-58
2021/10/05 06:44:17;;;;;;;33.63;20.00;;;;;;;9.97;81.75;95296.05;1689771;83;21067;-57
2021/10/05 06:46:44;;;;;;;46.73;26.05;;;;;;;10.00;81.71;95297.94;1673191;83;21091;-58
2021/10/05 06:49:10;;;;;;;50.63;25.40;;;;;;;10.05;81.77;95296.86;1693459;82;21532;-58
2021/10/05 06:51:37;;;;;;;44.75;24.50;;;;;;;10.14;81.80;95288.01;1679215;83;21060;-56
2021/10/05 06:54:04;;;;;;;48.87;23.80;;;;;;;10.20;81.57;95283.52;1688986;82;21538;-57
2021/10/05 06:56:31;;;;;;;32.03;19.50;;;;;;;10.25;81.60;95285.75;1686161;83;21561;-64
2021/10/05 06:58:57;;;;;;;42.40;20.37;;;;;;;10.31;81.57;95291.67;1682709;83;21102;-55
2021/10/05 07:01:24;;;;;;;52.30;22.05;;;;;;;10.37;81.43;95290.55;1697020;83;21054;-60
2021/10/05 07:03:52;;;;;;;38.53;21.15;;;;;;;10.45;81.51;95289.15;1691725;82;21139;-57
2021/10/05 07:06:19;;;;;;;41.13;24.52;;;;;;;10.58;81.41;95285.86;1703900;83;21213;-57
2021/10/05 07:08:46;;;;;;;46.90;22.75;;;;;;;10.73;81.25;95289.78;1701619;83;21061;-52
2021/10/05 07:11:12;;;;;;;47.03;23.55;;;;;;;10.89;81.09;95287.73;1678959;83;21124;-56
2021/10/05 07:13:39;;;;;;;39.78;21.55;;;;;;;11.08;80.66;95281.30;1694712;83;21102;-57
2021/10/05 07:16:06;;;;;;;55.90;25.27;;;;;;;11.27;80.26;95277.00;1702423;82;21054;-51
2021/10/05 07:18:33;;;;;;;45.58;23.55;;;;;;;11.44;79.94;95277.08;1687745;82;21621;-60
2021/10/05 07:21:01;;;;;;;46.35;24.07;;;;;;;11.60;79.50;95268.74;1718107;82;21083;-59
2021/10/05 07:23:30;;;;;;;47.88;24.52;;;;;;;11.71;79.07;95276.67;1682111;83;21142;-55
2021/10/05 07:25:57;;;;;;;51.23;27.15;;;;;;;11.82;78.76;95268.23;1691798;83;21059;-55
2021/10/05 07:28:23;;;;;;;43.68;23.55;;;;;;;11.92;78.41;95270.48;1711137;82;21035;-54
2021/10/05 07:30:50;;;;;;;45.48;25.37;;;;;;;12.03;78.20;95255.73;1682921;83;21084;-60
2021/10/05 07:33:17;;;;;;;39.03;22.30;;;;;;;12.17;78.05;95262.17;1681764;83;21105;-57
2021/10/05 07:35:44;;;;;;;37.33;21.97;;;;;;;12.33;77.63;95264.19;1692654;83;22250;-61
2021/10/05 07:38:10;;;;;;;42.30;24.07;;;;;;;12.47;77.03;95266.45;1693002;82;21105;-58
2021/10/05 07:40:37;;;;;;;46.90;25.17;;;;;;;12.57;76.61;95259.17;1680111;83;21116;-56
2021/10/05 07:43:04;;;;;;;39.85;22.52;;;;;;;12.70;76.35;95259.16;1693480;82;21142;-59
2021/10/05 07:45:31;;;;;;;41.20;18.80;;;;;;;12.87;75.82;95257.75;1686206;83;20982;-55
2021/10/05 07:47:58;;;;;;;31.27;18.15;;;;;;;13.03;75.19;95256.19;1694025;82;21795;-61
2021/10/05 07:50:24;;;;;;;39.42;18.37;;;;;;;13.21;74.64;95260.45;1690478;82;21045;-57
2021/10/05 07:52:51;;;;;;;22.25;16.07;;;;;;;13.42;74.30;95251.38;1689214;81;21105;-55
2021/10/05 07:55:18;;;;;;;33.05;19.45;;;;;;;13.61;73.56;95257.91;1701850;83;21012;-58
2021/10/05 07:57:45;;;;;;;31.62;17.32;;;;;;;13.79;73.02;95250.32;1695007;82;21180;-58
2021/10/05 08:00:14;;;;;;;28.07;17.15;;;;;;;14.00;72.27;95248.08;1705504;83;21162;-58
2021/10/05 08:02:41;;;;;;;22.07;14.07;;;;;;;14.17;71.73;95241.09;1690701;82;20982;-58
2021/10/05 08:05:08;;;;;;;25.77;11.10;;;;;;;14.34;71.02;95239.59;1695028;82;21088;-58
2021/10/05 08:07:36;;;;;;;15.13;9.68;;;;;;;14.48;70.71;95241.13;1705358;83;21042;-59
2021/10/05 08:10:03;;;;;;;20.20;11.12;;;;;;;14.66;69.97;95245.30;1671846;83;21070;-58
2021/10/05 08:12:30;;;;;;;18.95;10.90;;;;;;;14.82;69.59;95246.39;1681712;82;21795;-58
2021/10/05 08:14:57;;;;;;;16.50;8.33;;;;;;;14.99;68.92;95241.44;1684671;83;22322;-58
2021/10/05 08:17:24;;;;;;;16.17;7.55;;;;;;;15.18;68.68;95243.59;1700029;82;21553;-57
2021/10/05 08:19:52;;;;;;;14.35;8.33;;;;;;;15.29;68.17;95239.13;1663988;84;21576;-60
2021/10/05 08:22:20;;;;;;;15.18;9.93;;;;;;;15.39;67.87;95242.01;1667198;85;21613;-56
2021/10/05 08:24:51;;;;;;;13.10;8.18;;;;;;;15.52;67.09;95237.05;1637382;86;21162;-57
2021/10/05 08:27:20;;;;;;;11.63;7.30;;;;;;;15.66;66.45;95237.78;1692302;82;21112;-59
2021/10/05 08:29:49;;;;;;;10.28;7.00;;;;;;;15.81;65.97;95235.89;1684133;83;21152;-63
2021/10/05 08:32:17;;;;;;;16.93;8.55;;;;;;;15.96;65.77;95238.14;1702131;83;21046;-57
2021/10/05 08:34:44;;;;;;;13.25;7.47;;;;;;;16.10;64.73;95240.84;1693894;83;21050;-59
2021/10/05 08:37:12;;;;;;;15.25;7.50;;;;;;;16.19;64.47;95241.56;1699359;83;21848;-57
2021/10/05 08:39:40;;;;;;;10.03;7.08;;;;;;;16.28;63.62;95235.33;1677187;84;21019;-57
2021/10/05 08:42:07;;;;;;;17.98;11.88;;;;;;;16.38;62.95;95244.41;1618352;87;21087;-58
2021/10/05 08:44:34;;;;;;;11.70;7.30;;;;;;;16.47;62.43;95237.39;1634600;86;21066;-58
2021/10/05 08:47:03;;;;;;;11.08;7.15;;;;;;;16.57;62.65;95234.08;1674752;83;21179;-58
2021/10/05 08:49:33;;;;;;;10.50;7.05;;;;;;;16.68;62.48;95230.75;1714199;82;21927;-55
2021/10/05 08:52:02;;;;;;;11.40;6.67;;;;;;;16.76;61.92;95222.22;1700629;82;21151;-55
2021/10/05 08:54:29;;;;;;;17.32;9.05;;;;;;;16.89;61.73;95219.32;1702716;82;21128;-57
2021/10/05 08:56:56;;;;;;;11.83;7.12;;;;;;;17.00;61.23;95222.33;1652686;85;21153;-58
2021/10/05 08:59:23;;;;;;;14.03;7.67;;;;;;;17.15;60.69;95222.34;1696754;82;21077;-57
2021/10/05 09:01:50;;;;;;;11.55;6.47;;;;;;;17.25;59.96;95216.20;1679479;82;22273;-57
2021/10/05 09:04:17;;;;;;;7.78;5.30;;;;;;;17.32;59.79;95210.25;1681301;83;21633;-58
2021/10/05 09:06:50;;;;;;;13.28;5.95;;;;;;;17.45;59.78;95222.53;1699675;83;21108;-61
2021/10/05 09:09:17;;;;;;;8.68;6.65;;;;;;;17.57;59.35;95217.29;1693220;83;22364;-59
2021/10/05 09:11:47;;;;;;;6.62;5.00;;;;;;;17.72;59.11;95209.70;1696008;82;21601;-56
2021/10/05 09:14:14;;;;;;;13.18;6.90;;;;;;;17.92;57.74;95213.94;1691370;83;21183;-58
2021/10/05 09:16:40;;;;;;;13.50;6.03;;;;;;;18.13;57.58;95207.16;1691260;83;21552;-58
2021/10/05 09:19:13;;;;;;;9.33;5.72;;;;;;;18.29;57.08;95202.62;1682508;83;21001;-59
2021/10/05 09:21:44;;;;;;;8.13;5.75;;;;;;;18.45;56.29;95206.27;1697591;83;21000;-59
2021/10/05 09:24:27;;;;;;;10.88;5.75;;;;;;;18.61;55.88;95207.10;1704689;83;21119;-62
2021/10/05 09:26:58;;;;;;;12.65;6.45;;;;;;;18.80;55.78;95207.60;1703761;82;21805;-59
2021/10/05 09:29:34;;;;;;;12.28;6.17;;;;;;;18.95;55.36;95211.83;1709364;83;21065;-56
2021/10/05 09:32:07;;;;;;;10.70;5.87;;;;;;;19.11;55.03;95206.28;1704509;82;21921;-57
2021/10/05 09:34:54;;;;;;;8.65;6.08;;;;;;;19.34;53.81;95210.24;1706153;83;21479;-58
2021/10/05 09:37:29;;;;;;;16.82;6.33;;;;;;;19.60;53.25;95206.80;1709871;82;21715;-56
2021/10/05 09:40:04;;;;;;;11.53;5.78;;;;;;;20.01;51.60;95210.96;1690339;83;21636;-57
2021/10/05 09:42:40;;;;;;;10.20;5.60;;;;;;;20.46;51.12;95211.40;1698674;83;22090;-58
2021/10/05 09:45:13;;;;;;;10.23;5.45;;;;;;;21.05;50.17;95212.20;1701227;83;21057;-58
2021/10/05 09:47:46;;;;;;;12.25;5.05;;;;;;;21.70;48.79;95203.85;1704657;83;21044;-63
2021/10/05 09:50:29;;;;;;;;;;;;;;;22.36;46.56;95196.94;1698063;83;21036;-57
2021/10/05 09:53:01;;;;;;;6.50;4.37;;;;;;;22.96;45.75;95194.61;1695793;83;21202;-58
2021/10/05 09:55:35;;;;;;;5.65;4.35;;;;;;;23.54;42.91;95200.31;1706132;83;21629;-58
2021/10/05 09:58:02;;;;;;;26.52;5.90;;;;;;;23.95;40.92;95198.25;1687420;83;21165;-59
2021/10/05 10:00:32;;;;;;;12.90;4.97;;;;;;;24.33;40.57;95199.96;1694872;83;21051;-57
2021/10/05 10:03:00;;;;;;;10.48;4.42;;;;;;;24.70;39.11;95201.52;1693007;83;21062;-57
2021/10/05 10:05:27;;;;;;;13.45;4.30;;;;;;;25.02;38.11;95195.40;1691212;81;21121;-56
2021/10/05 10:07:56;;;;;;;9.00;4.50;;;;;;;25.33;37.94;95191.97;1682543;83;21823;-61
2021/10/05 10:10:29;;;;;;;7.00;3.55;;;;;;;25.70;37.50;95186.31;1697869;83;21105;-57
2021/10/05 10:13:02;;;;;;;5.00;4.08;;;;;;;26.19;35.91;95187.72;1698063;82;21108;-58
2021/10/05 10:15:35;;;;;;;7.87;3.65;;;;;;;26.46;34.63;95187.12;1693757;83;21102;-58
2021/10/05 10:18:15;;;;;;;5.95;3.72;;;;;;;26.64;32.90;95192.70;1692147;83;22227;-59
2021/10/05 10:20:44;;;;;;;12.75;5.08;;;;;;;26.74;33.11;95189.58;1694716;83;21158;-57
2021/10/05 10:23:24;;;;;;;14.53;3.92;;;;;;;27.02;33.08;95191.19;1708827;83;21064;-59
2021/10/05 10:26:02;;;;;;;16.50;3.60;;;;;;;27.34;31.39;95184.77;1714206;82;21666;-57
2021/10/05 10:28:35;;;;;;;8.58;4.05;;;;;;;27.60;29.53;95179.05;1691805;83;21107;-60
2021/10/05 10:31:05;;;;;;;9.08;3.45;;;;;;;27.68;28.78;95184.78;1694209;82;21158;-61
2021/10/05 10:33:45;;;;;;;6.80;3.72;;;;;;;27.82;28.87;95182.83;1690817;82;21301;-58
2021/10/05 10:36:13;;;;;;;16.60;4.03;;;;;;;28.09;28.65;95187.83;1683610;83;20981;-57
2021/10/05 10:38:45;;;;;;;16.65;3.30;;;;;;;28.47;29.10;95185.34;1704032;83;22281;-59
2021/10/05 10:41:14;;;;;;;;;;;;;;;28.79;27.35;95184.36;1681608;83;21060;-56
2021/10/05 10:43:54;;;;;;;7.55;3.58;;;;;;;28.80;26.51;95180.95;1693245;83;21154;-60
2021/10/05 10:46:27;;;;;;;4.83;3.05;;;;;;;28.74;27.82;95178.20;1697591;83;21712;-58
2021/10/05 10:48:56;;;;;;;15.50;3.50;;;;;;;28.99;27.05;95179.33;1701856;83;21074;-59
2021/10/05 10:51:29;;;;;;;9.15;3.37;;;;;;;29.35;26.34;95183.67;1719425;82;21113;-58
2021/10/05 10:53:56;;;;;;;8.98;3.05;;;;;;;29.81;26.22;95189.66;1708151;82;21082;-61
2021/10/05 10:56:34;;;;;;;6.12;2.42;;;;;;;30.19;25.43;95184.20;1697678;83;21282;-59
2021/10/05 10:59:06;;;;;;;9.10;3.15;;;;;;;30.35;25.08;95180.03;1662287;83;21087;-58
2021/10/05 11:01:48;;;;;;;6.83;2.58;;;;;;;30.50;24.99;95177.88;1675171;83;21161;-58
2021/10/05 11:04:17;;;;;;;9.10;3.80;;;;;;;30.65;24.93;95168.71;1694482;83;21050;-58
2021/10/05 11:06:47;;;;;;;6.17;2.72;;;;;;;30.82;24.08;95166.05;1702097;83;21038;-58
2021/10/05 11:09:14;;;;;;;6.87;2.67;;;;;;;30.70;23.63;95169.17;1697695;83;22513;-61
2021/10/05 11:11:49;;;;;;;6.92;2.58;;;;;;;30.44;24.62;95170.96;1693565;82;21043;-61
2021/10/05 11:14:23;;;;;;;4.80;2.70;;;;;;;30.68;24.63;95163.98;1700051;82;21144;-58
2021/10/05 11:16:59;;;;;;;6.25;2.90;;;;;;;30.89;24.61;95173.05;1704223;83;21548;-59
2021/10/05 11:19:38;;;;;;;5.67;2.87;;;;;;;31.18;23.54;95171.48;1710379;82;22209;-58
2021/10/05 11:22:11;;;;;;;8.28;2.90;;;;;;;31.31;23.21;95164.93;1703819;82;21853;-57
2021/10/05 11:24:49;;;;;;;9.18;3.70;;;;;;;31.33;23.40;95163.69;1698892;82;22328;-59
2021/10/05 11:27:21;;;;;;;10.80;3.75;;;;;;;31.40;24.49;95165.73;1689801;83;21017;-58
2021/10/05 11:29:48;;;;;;;7.17;3.37;;;;;;;31.65;23.55;95166.63;1669621;83;21019;-61
2021/10/05 11:32:18;;;;;;;8.93;4.42;;;;;;;31.71;23.57;95164.31;1650842;86;21090;-62
2021/10/05 11:34:48;;;;;;;15.38;4.72;;;;;;;31.70;24.42;95170.57;1645069;85;21162;-59